Gentilly, Minnesota
Current Conditions -  °F | °C
As of 2:54 AM on Friday 24 Oct 2014 (Local Time) from KCKN Reporting Station
Clear Clear  
Wind Chill: 43°   Ceiling: Unl
Heat Index: 48°   Visibility: 10mi
Dew Point: 43°   Wind: 12mph
Humidity: 82%   Direction: 200°SSW
Pressure: 29.77"   Gusts: NA
Location:  47.8137°N, 96.5605°W
Report Text: KCKN 240754Z AUTO 20010KT 10SM CLR 09/06 A2977 RMK AO2
Loading
Personal Weather Stations






























Interactive Weather Map
Tropical Storm Tracking
New forecast layout! Learn more

10-Day Weather Forecast

Advertisements
Track Severe Weather on mobile